createdAt,value
2019-04-23T00:00:23.863Z,99.90
2019-04-23T00:03:36.014Z,99.90
2019-04-23T00:06:07.365Z,99.90
2019-04-23T00:08:36.221Z,99.90
2019-04-23T00:10:58.479Z,99.90
2019-04-23T00:13:30.467Z,99.90
2019-04-23T00:16:23.811Z,99.90
2019-04-23T00:18:37.743Z,99.90
2019-04-23T00:21:20.252Z,99.90
2019-04-23T00:23:57.212Z,99.90
2019-04-23T00:26:25.740Z,99.90
2019-04-23T00:28:50.449Z,99.90
2019-04-23T00:31:24.303Z,99.90
2019-04-23T00:33:49.618Z,99.90
2019-04-23T00:36:26.044Z,99.90
2019-04-23T00:41:16.430Z,99.90
2019-04-23T00:43:48.554Z,99.90
2019-04-23T00:46:15.573Z,99.90
2019-04-23T00:48:59.116Z,99.90
2019-04-23T00:51:22.335Z,99.90
2019-04-23T00:54:02.656Z,99.90
2019-04-23T00:59:01.058Z,99.90
2019-04-23T01:01:36.920Z,99.90
2019-04-23T01:04:05.823Z,99.90
2019-04-23T01:06:34.454Z,99.90
2019-04-23T01:09:08.477Z,99.90
2019-04-23T01:11:41.900Z,99.90
2019-04-23T01:14:18.356Z,99.90
2019-04-23T01:16:49.496Z,99.90
2019-04-23T01:19:32.431Z,99.90
2019-04-23T01:21:37.030Z,99.90
2019-04-23T01:24:17.919Z,99.90
2019-04-23T01:30:10.109Z,99.90
2019-04-23T01:32:51.330Z,99.90
2019-04-23T01:35:17.737Z,99.90
2019-04-23T01:40:11.826Z,99.90
2019-04-23T01:43:01.671Z,99.90
2019-04-23T01:45:54.598Z,99.90
2019-04-23T01:48:05.043Z,99.90
2019-04-23T01:50:46.402Z,99.90
2019-04-23T01:53:14.857Z,99.90
2019-04-23T01:55:42.635Z,99.90
2019-04-23T01:58:26.748Z,99.90
2019-04-23T02:00:45.183Z,99.90
2019-04-23T02:03:12.847Z,99.90
2019-04-23T02:05:48.123Z,99.90
2019-04-23T02:16:35.858Z,99.90
2019-04-23T02:19:02.874Z,99.90
2019-04-23T02:21:49.639Z,99.90
2019-04-23T02:24:14.483Z,99.90
2019-04-23T02:26:43.654Z,99.90
2019-04-23T02:29:26.135Z,99.90
2019-04-23T02:34:45.026Z,99.90
2019-04-23T02:39:22.397Z,99.90
2019-04-23T02:44:17.075Z,99.90
2019-04-23T02:46:41.520Z,99.90
2019-04-23T02:52:08.033Z,99.90
2019-04-23T03:00:04.282Z,99.90
2019-04-23T03:04:49.975Z,99.90
2019-04-23T03:07:32.927Z,99.90
2019-04-23T03:09:50.793Z,99.90
2019-04-23T03:12:26.680Z,99.90
2019-04-23T03:15:15.166Z,99.90
2019-04-23T03:17:19.037Z,99.90
2019-04-23T03:20:08.402Z,99.90
2019-04-23T03:22:56.243Z,99.90
2019-04-23T03:25:41.394Z,99.90
2019-04-23T03:34:33.603Z,99.90
2019-04-23T03:38:36.430Z,99.90
2019-04-23T03:41:05.014Z,99.90
2019-04-23T03:43:25.119Z,99.90
2019-04-23T03:48:32.261Z,99.90
2019-04-23T03:51:02.985Z,99.90
2019-04-23T03:53:45.442Z,99.90
2019-04-23T03:58:39.569Z,99.90
2019-04-23T04:01:07.501Z,99.90
2019-04-23T04:04:04.077Z,99.90
2019-04-23T04:06:13.943Z,99.90
2019-04-23T04:08:58.251Z,99.90
2019-04-23T04:11:11.222Z,99.90
2019-04-23T04:13:50.500Z,99.90
2019-04-23T04:16:36.150Z,99.90
2019-04-23T04:19:06.357Z,99.90
2019-04-23T04:22:00.778Z,99.90
2019-04-23T04:31:03.219Z,99.90
2019-04-23T04:41:23.995Z,99.90
2019-04-23T04:44:07.249Z,99.90
2019-04-23T04:48:56.981Z,99.90
2019-04-23T04:54:10.083Z,99.90
2019-04-23T04:59:08.558Z,99.90
2019-04-23T05:01:39.622Z,99.90
2019-04-23T05:04:18.238Z,99.90
2019-04-23T05:06:51.271Z,99.90
2019-04-23T05:09:21.330Z,99.90
2019-04-23T05:12:01.117Z,99.90
2019-04-23T05:16:56.757Z,99.90
2019-04-23T05:19:42.599Z,99.90
2019-04-23T05:27:14.023Z,99.90
2019-04-23T05:30:07.774Z,99.90
2019-04-23T05:32:32.885Z,99.90
2019-04-23T05:35:16.241Z,99.90
2019-04-23T05:38:08.939Z,99.90
2019-04-23T05:40:24.178Z,99.90
2019-04-23T05:51:14.346Z,99.90
2019-04-23T05:53:40.787Z,99.90
2019-04-23T05:56:06.471Z,99.90
2019-04-23T05:58:58.138Z,99.90
2019-04-23T06:04:32.682Z,99.90
2019-04-23T06:07:15.116Z,99.90
2019-04-23T06:09:48.054Z,99.90
2019-04-23T06:12:13.804Z,99.90
2019-04-23T06:15:00.237Z,99.90
2019-04-23T06:17:25.420Z,99.90
2019-04-23T06:20:07.870Z,99.90
2019-04-23T06:22:42.365Z,99.90
2019-04-23T06:25:12.532Z,99.90
2019-04-23T06:28:14.631Z,99.90
2019-04-23T06:30:57.284Z,99.90
2019-04-23T06:33:21.111Z,99.60
2019-04-23T06:39:02.777Z,98.40
2019-04-23T06:41:23.415Z,99.20
2019-04-23T06:44:06.105Z,97.90
2019-04-23T06:46:54.908Z,97.30
2019-04-23T13:31:18.133Z,64.10
2019-04-23T13:43:45.426Z,65.20
2019-04-23T13:52:02.940Z,69.00
2019-04-23T14:16:10.349Z,71.40
2019-04-23T14:19:11.458Z,70.80
2019-04-23T14:22:09.749Z,72.90
2019-04-23T14:28:21.708Z,69.50
2019-04-23T14:44:23.729Z,75.70
2019-04-23T14:47:22.335Z,75.80
2019-04-23T14:51:03.651Z,75.70
2019-04-23T14:54:03.201Z,77.50
2019-04-23T14:56:51.547Z,78.00
2019-04-23T14:59:47.233Z,78.80
2019-04-23T15:18:13.532Z,81.90
2019-04-23T15:22:21.816Z,83.20
2019-04-23T15:25:19.482Z,83.30
2019-04-23T15:32:31.038Z,84.70
2019-04-23T15:38:53.840Z,86.60
2019-04-23T15:41:27.481Z,87.60
2019-04-23T15:44:28.216Z,88.20
2019-04-23T15:48:11.885Z,88.50
2019-04-23T15:50:53.764Z,89.00
2019-04-23T15:53:17.575Z,89.90
2019-04-23T15:56:18.731Z,90.10
2019-04-23T16:21:10.233Z,91.40
2019-04-23T16:24:05.985Z,91.60
2019-04-23T16:55:08.952Z,94.50
2019-04-23T16:57:57.320Z,94.90
2019-04-23T17:05:57.074Z,95.50
2019-04-23T17:17:22.993Z,96.30
2019-04-23T17:20:02.649Z,96.90
2019-04-23T17:22:26.139Z,97.40
2019-04-23T17:30:06.785Z,98.40
2019-04-23T17:39:04.279Z,99.40
2019-04-23T17:47:42.793Z,99.90
2019-04-23T17:54:12.157Z,99.90
2019-04-23T17:57:04.514Z,99.90
2019-04-23T18:03:13.029Z,99.90
2019-04-23T18:05:52.282Z,99.90
2019-04-23T18:12:12.994Z,99.90
2019-04-23T18:14:50.867Z,99.90
2019-04-23T18:25:05.750Z,99.90
2019-04-23T18:27:21.374Z,99.90
2019-04-23T18:35:04.329Z,99.90
2019-04-23T18:36:37.789Z,99.90
2019-04-23T18:39:46.655Z,99.90
2019-04-23T18:42:28.624Z,99.90
2019-04-23T18:47:54.809Z,99.90
2019-04-23T18:58:15.425Z,99.90
2019-04-23T19:00:53.249Z,99.90
2019-04-23T19:03:50.934Z,99.90
2019-04-23T19:09:10.039Z,99.90
2019-04-23T19:14:48.979Z,99.90
2019-04-23T19:22:58.573Z,99.90
2019-04-23T19:25:28.105Z,99.90
2019-04-23T19:31:07.447Z,99.90
2019-04-23T19:33:53.473Z,99.90
2019-04-23T19:36:26.580Z,99.90
2019-04-23T19:39:09.243Z,99.90
2019-04-23T19:41:39.690Z,99.90
2019-04-23T19:44:01.362Z,99.90
2019-04-23T19:49:35.710Z,99.90
2019-04-23T20:05:17.388Z,99.90
2019-04-23T20:08:34.549Z,99.90
2019-04-23T20:14:26.145Z,99.90
2019-04-23T20:22:48.653Z,99.90
2019-04-23T20:25:46.387Z,99.90
2019-04-23T20:28:17.364Z,99.90
2019-04-23T20:36:25.884Z,99.90
2019-04-23T20:39:02.659Z,99.90
2019-04-23T20:41:54.766Z,99.90
2019-04-23T20:44:23.571Z,99.90
2019-04-23T20:46:55.991Z,99.90
2019-04-23T20:49:37.428Z,99.90
2019-04-23T20:57:43.108Z,99.90
2019-04-23T21:10:37.229Z,99.90
2019-04-23T21:25:57.098Z,99.90
2019-04-23T21:28:50.635Z,99.90
2019-04-23T21:31:21.155Z,99.90
2019-04-23T21:33:57.272Z,99.90
2019-04-23T21:37:06.443Z,99.90
2019-04-23T21:40:02.581Z,99.90
2019-04-23T21:42:39.017Z,99.90
2019-04-23T21:44:52.807Z,99.90
2019-04-23T21:47:40.227Z,99.90
2019-04-23T21:50:19.187Z,99.90
2019-04-23T21:52:43.302Z,99.90
2019-04-23T21:55:20.786Z,99.90
2019-04-23T21:58:07.160Z,99.90
2019-04-23T22:00:14.164Z,99.90
2019-04-23T22:02:56.867Z,99.90
2019-04-23T22:05:25.004Z,99.90
2019-04-23T22:10:25.433Z,99.90
2019-04-23T22:16:44.851Z,99.90
2019-04-23T22:21:55.806Z,99.90
2019-04-23T22:24:26.531Z,99.90
2019-04-23T22:26:57.536Z,99.90
2019-04-23T22:29:37.983Z,99.90
2019-04-23T22:31:58.163Z,99.90
2019-04-23T22:34:34.076Z,99.90
2019-04-23T22:37:23.884Z,99.90
2019-04-23T22:43:14.713Z,99.90
2019-04-23T22:46:02.381Z,99.90
2019-04-23T22:48:29.596Z,99.90
2019-04-23T22:51:07.016Z,99.90
2019-04-23T22:53:20.525Z,99.90
2019-04-23T22:55:59.836Z,99.90
2019-04-23T22:58:25.651Z,99.90
2019-04-23T23:01:19.726Z,99.90
2019-04-23T23:03:52.878Z,99.90
2019-04-23T23:09:04.351Z,99.90
2019-04-23T23:11:17.000Z,99.90
2019-04-23T23:16:28.742Z,99.90
2019-04-23T23:19:16.335Z,99.90
2019-04-23T23:22:40.100Z,99.90
2019-04-23T23:25:06.679Z,99.90
2019-04-23T23:27:59.031Z,99.90
2019-04-23T23:30:40.803Z,99.90
2019-04-23T23:33:50.844Z,99.90
2019-04-23T23:36:30.063Z,99.90
2019-04-23T23:41:44.514Z,99.90
2019-04-23T23:44:50.335Z,99.90
2019-04-23T23:52:35.066Z,99.90
2019-04-23T23:58:10.901Z,99.90
